sensor_id;sensor_type;location;lat;lon;timestamp;temperature;humidity
4411;DHT22;2218;51.408;7.208;2022-07-23T00:00:08;25.20;49.70
4411;DHT22;2218;51.408;7.208;2022-07-23T00:02:36;25.10;49.70
4411;DHT22;2218;51.408;7.208;2022-07-23T00:05:03;25.10;49.70
4411;DHT22;2218;51.408;7.208;2022-07-23T00:07:31;25.10;49.70
4411;DHT22;2218;51.408;7.208;2022-07-23T00:09:59;25.10;50.20
4411;DHT22;2218;51.408;7.208;2022-07-23T00:12:26;25.10;49.80
4411;DHT22;2218;51.408;7.208;2022-07-23T00:14:53;25.10;49.80
4411;DHT22;2218;51.408;7.208;2022-07-23T00:17:20;25.10;49.80
4411;DHT22;2218;51.408;7.208;2022-07-23T00:19:47;25.10;49.80
4411;DHT22;2218;51.408;7.208;2022-07-23T00:22:14;25.10;49.80
4411;DHT22;2218;51.408;7.208;2022-07-23T00:24:41;25.10;49.80
4411;DHT22;2218;51.408;7.208;2022-07-23T00:27:10;25.10;49.90
4411;DHT22;2218;51.408;7.208;2022-07-23T00:29:37;25.10;49.90
4411;DHT22;2218;51.408;7.208;2022-07-23T00:32:04;25.10;49.90
4411;DHT22;2218;51.408;7.208;2022-07-23T00:34:31;25.10;49.90
4411;DHT22;2218;51.408;7.208;2022-07-23T00:36:58;25.10;49.90
4411;DHT22;2218;51.408;7.208;2022-07-23T00:39:25;25.10;49.90
4411;DHT22;2218;51.408;7.208;2022-07-23T00:41:52;25.10;49.90
4411;DHT22;2218;51.408;7.208;2022-07-23T00:44:23;25.10;49.90
4411;DHT22;2218;51.408;7.208;2022-07-23T00:46:53;25.00;49.90
4411;DHT22;2218;51.408;7.208;2022-07-23T00:49:22;25.00;50.00
4411;DHT22;2218;51.408;7.208;2022-07-23T00:51:50;25.00;50.00
4411;DHT22;2218;51.408;7.208;2022-07-23T00:54:18;25.00;50.00
4411;DHT22;2218;51.408;7.208;2022-07-23T00:56:47;25.00;50.00
4411;DHT22;2218;51.408;7.208;2022-07-23T00:59:14;25.00;50.00
4411;DHT22;2218;51.408;7.208;2022-07-23T01:01:43;25.00;50.00
4411;DHT22;2218;51.408;7.208;2022-07-23T01:04:12;25.00;50.00
4411;DHT22;2218;51.408;7.208;2022-07-23T01:06:40;25.00;50.00
4411;DHT22;2218;51.408;7.208;2022-07-23T01:09:09;25.00;50.10
4411;DHT22;2218;51.408;7.208;2022-07-23T01:11:37;25.00;50.10
4411;DHT22;2218;51.408;7.208;2022-07-23T01:14:11;25.00;50.00
4411;DHT22;2218;51.408;7.208;2022-07-23T01:16:41;25.00;50.10
4411;DHT22;2218;51.408;7.208;2022-07-23T01:19:11;25.00;50.10
4411;DHT22;2218;51.408;7.208;2022-07-23T01:21:41;25.00;50.10
4411;DHT22;2218;51.408;7.208;2022-07-23T01:24:11;25.00;50.10
4411;DHT22;2218;51.408;7.208;2022-07-23T01:26:47;25.00;50.10
4411;DHT22;2218;51.408;7.208;2022-07-23T01:29:15;24.90;50.60
4411;DHT22;2218;51.408;7.208;2022-07-23T01:31:45;24.90;50.10
4411;DHT22;2218;51.408;7.208;2022-07-23T01:34:12;24.90;50.10
4411;DHT22;2218;51.408;7.208;2022-07-23T01:36:40;24.90;50.10
4411;DHT22;2218;51.408;7.208;2022-07-23T01:39:10;24.90;50.10
4411;DHT22;2218;51.408;7.208;2022-07-23T01:41:37;24.90;50.10
4411;DHT22;2218;51.408;7.208;2022-07-23T01:44:04;24.90;50.10
4411;DHT22;2218;51.408;7.208;2022-07-23T01:46:31;24.90;50.20
4411;DHT22;2218;51.408;7.208;2022-07-23T01:48:58;24.90;50.10
4411;DHT22;2218;51.408;7.208;2022-07-23T01:51:46;24.90;50.10
4411;DHT22;2218;51.408;7.208;2022-07-23T01:54:32;24.90;50.70
4411;DHT22;2218;51.408;7.208;2022-07-23T01:57:01;24.90;50.20
4411;DHT22;2218;51.408;7.208;2022-07-23T01:59:28;24.90;50.20
4411;DHT22;2218;51.408;7.208;2022-07-23T02:01:56;24.90;50.20
4411;DHT22;2218;51.408;7.208;2022-07-23T02:04:25;24.90;50.20
4411;DHT22;2218;51.408;7.208;2022-07-23T02:06:52;24.90;50.20
4411;DHT22;2218;51.408;7.208;2022-07-23T02:09:20;24.90;50.20
4411;DHT22;2218;51.408;7.208;2022-07-23T02:11:49;24.90;50.20
4411;DHT22;2218;51.408;7.208;2022-07-23T02:14:18;24.90;50.70
4411;DHT22;2218;51.408;7.208;2022-07-23T02:16:45;24.90;50.20
4411;DHT22;2218;51.408;7.208;2022-07-23T02:19:14;24.90;50.20
4411;DHT22;2218;51.408;7.208;2022-07-23T02:21:41;24.90;50.20
4411;DHT22;2218;51.408;7.208;2022-07-23T02:24:08;24.90;50.20
4411;DHT22;2218;51.408;7.208;2022-07-23T02:26:37;24.90;50.20
4411;DHT22;2218;51.408;7.208;2022-07-23T02:29:07;24.90;50.20
4411;DHT22;2218;51.408;7.208;2022-07-23T02:31:34;24.90;50.20
4411;DHT22;2218;51.408;7.208;2022-07-23T02:34:02;24.90;50.20
4411;DHT22;2218;51.408;7.208;2022-07-23T02:36:29;24.90;50.30
4411;DHT22;2218;51.408;7.208;2022-07-23T02:38:58;24.90;50.20
4411;DHT22;2218;51.408;7.208;2022-07-23T02:41:26;24.90;50.30
4411;DHT22;2218;51.408;7.208;2022-07-23T02:43:53;24.80;50.20
4411;DHT22;2218;51.408;7.208;2022-07-23T02:46:23;24.90;50.30
4411;DHT22;2218;51.408;7.208;2022-07-23T02:48:50;24.80;50.70
4411;DHT22;2218;51.408;7.208;2022-07-23T02:51:16;24.90;50.30
4411;DHT22;2218;51.408;7.208;2022-07-23T02:53:51;24.90;50.30
4411;DHT22;2218;51.408;7.208;2022-07-23T02:56:20;24.80;50.20
4411;DHT22;2218;51.408;7.208;2022-07-23T02:58:47;24.80;50.20
4411;DHT22;2218;51.408;7.208;2022-07-23T03:01:14;24.80;50.20
4411;DHT22;2218;51.408;7.208;2022-07-23T03:03:42;24.80;50.20
4411;DHT22;2218;51.408;7.208;2022-07-23T03:06:09;24.80;50.20
4411;DHT22;2218;51.408;7.208;2022-07-23T03:08:38;24.80;50.30
4411;DHT22;2218;51.408;7.208;2022-07-23T03:11:05;24.80;50.30
4411;DHT22;2218;51.408;7.208;2022-07-23T03:13:37;24.80;50.30
4411;DHT22;2218;51.408;7.208;2022-07-23T03:16:05;24.80;50.20
4411;DHT22;2218;51.408;7.208;2022-07-23T03:18:35;24.80;50.30
4411;DHT22;2218;51.408;7.208;2022-07-23T03:21:04;24.80;50.30
4411;DHT22;2218;51.408;7.208;2022-07-23T03:23:31;24.80;50.30
4411;DHT22;2218;51.408;7.208;2022-07-23T03:25:58;24.80;50.30
4411;DHT22;2218;51.408;7.208;2022-07-23T03:28:25;24.80;50.30
4411;DHT22;2218;51.408;7.208;2022-07-23T03:30:52;24.80;50.30
4411;DHT22;2218;51.408;7.208;2022-07-23T03:33:20;24.80;50.30
4411;DHT22;2218;51.408;7.208;2022-07-23T03:35:48;24.80;50.30
4411;DHT22;2218;51.408;7.208;2022-07-23T03:38:23;24.80;50.30
4411;DHT22;2218;51.408;7.208;2022-07-23T03:40:50;24.80;50.30
4411;DHT22;2218;51.408;7.208;2022-07-23T03:43:17;24.80;50.30
4411;DHT22;2218;51.408;7.208;2022-07-23T03:45:45;24.80;50.30
4411;DHT22;2218;51.408;7.208;2022-07-23T03:48:12;24.80;50.30
4411;DHT22;2218;51.408;7.208;2022-07-23T03:50:39;24.80;50.30
4411;DHT22;2218;51.408;7.208;2022-07-23T03:53:06;24.80;50.30
4411;DHT22;2218;51.408;7.208;2022-07-23T03:55:35;24.80;50.30
4411;DHT22;2218;51.408;7.208;2022-07-23T03:58:02;24.80;50.30
4411;DHT22;2218;51.408;7.208;2022-07-23T04:00:30;24.80;50.40
4411;DHT22;2218;51.408;7.208;2022-07-23T04:02:57;24.80;50.40
4411;DHT22;2218;51.408;7.208;2022-07-23T04:05:24;24.80;50.40
4411;DHT22;2218;51.408;7.208;2022-07-23T04:07:57;24.80;50.40
4411;DHT22;2218;51.408;7.208;2022-07-23T04:10:25;24.80;50.40
4411;DHT22;2218;51.408;7.208;2022-07-23T04:12:53;24.80;50.90
4411;DHT22;2218;51.408;7.208;2022-07-23T04:15:20;24.80;50.40
4411;DHT22;2218;51.408;7.208;2022-07-23T04:17:47;24.80;50.40
4411;DHT22;2218;51.408;7.208;2022-07-23T04:20:17;24.80;50.40
4411;DHT22;2218;51.408;7.208;2022-07-23T04:22:51;24.80;50.40
4411;DHT22;2218;51.408;7.208;2022-07-23T04:25:18;24.80;50.40
4411;DHT22;2218;51.408;7.208;2022-07-23T04:27:45;24.80;50.40
4411;DHT22;2218;51.408;7.208;2022-07-23T04:30:13;24.80;50.50
4411;DHT22;2218;51.408;7.208;2022-07-23T04:32:40;24.80;50.40
4411;DHT22;2218;51.408;7.208;2022-07-23T04:35:15;24.80;50.40
4411;DHT22;2218;51.408;7.208;2022-07-23T04:37:43;24.70;50.40
4411;DHT22;2218;51.408;7.208;2022-07-23T04:40:11;24.80;50.40
4411;DHT22;2218;51.408;7.208;2022-07-23T04:42:40;24.70;50.40
4411;DHT22;2218;51.408;7.208;2022-07-23T04:45:07;24.70;50.40
4411;DHT22;2218;51.408;7.208;2022-07-23T04:47:36;24.70;50.40
4411;DHT22;2218;51.408;7.208;2022-07-23T04:50:04;24.70;50.40
4411;DHT22;2218;51.408;7.208;2022-07-23T04:52:31;24.70;50.40
4411;DHT22;2218;51.408;7.208;2022-07-23T04:54:58;24.70;50.40
4411;DHT22;2218;51.408;7.208;2022-07-23T04:57:25;24.70;50.40
4411;DHT22;2218;51.408;7.208;2022-07-23T04:59:53;24.70;50.40
4411;DHT22;2218;51.408;7.208;2022-07-23T05:02:20;24.70;50.40
4411;DHT22;2218;51.408;7.208;2022-07-23T05:04:48;24.70;50.40
4411;DHT22;2218;51.408;7.208;2022-07-23T05:07:15;24.70;50.40
4411;DHT22;2218;51.408;7.208;2022-07-23T05:09:42;24.70;50.40
4411;DHT22;2218;51.408;7.208;2022-07-23T05:12:09;24.70;50.40
4411;DHT22;2218;51.408;7.208;2022-07-23T05:14:37;24.70;50.40
4411;DHT22;2218;51.408;7.208;2022-07-23T05:17:04;24.70;50.50
4411;DHT22;2218;51.408;7.208;2022-07-23T05:19:31;24.70;50.40
4411;DHT22;2218;51.408;7.208;2022-07-23T05:21:59;24.70;50.40
4411;DHT22;2218;51.408;7.208;2022-07-23T05:24:26;24.70;50.90
4411;DHT22;2218;51.408;7.208;2022-07-23T05:26:53;24.70;50.50
4411;DHT22;2218;51.408;7.208;2022-07-23T05:29:21;24.70;50.40
4411;DHT22;2218;51.408;7.208;2022-07-23T05:31:48;24.70;50.40
4411;DHT22;2218;51.408;7.208;2022-07-23T05:34:15;24.70;50.40
4411;DHT22;2218;51.408;7.208;2022-07-23T05:36:43;24.70;50.50
4411;DHT22;2218;51.408;7.208;2022-07-23T05:39:11;24.70;50.40
4411;DHT22;2218;51.408;7.208;2022-07-23T05:41:38;24.70;50.40
4411;DHT22;2218;51.408;7.208;2022-07-23T05:44:06;24.70;50.50
4411;DHT22;2218;51.408;7.208;2022-07-23T05:46:37;24.70;50.40
4411;DHT22;2218;51.408;7.208;2022-07-23T05:49:06;24.70;50.50
4411;DHT22;2218;51.408;7.208;2022-07-23T05:51:52;24.70;50.50
4411;DHT22;2218;51.408;7.208;2022-07-23T05:54:30;24.70;50.50
4411;DHT22;2218;51.408;7.208;2022-07-23T05:56:57;24.70;50.40
4411;DHT22;2218;51.408;7.208;2022-07-23T05:59:25;24.70;50.50
4411;DHT22;2218;51.408;7.208;2022-07-23T06:01:52;24.70;50.50
4411;DHT22;2218;51.408;7.208;2022-07-23T06:04:20;24.70;50.50
4411;DHT22;2218;51.408;7.208;2022-07-23T06:07:01;24.70;50.50
4411;DHT22;2218;51.408;7.208;2022-07-23T06:09:29;24.70;50.50
4411;DHT22;2218;51.408;7.208;2022-07-23T06:11:56;24.70;50.50
4411;DHT22;2218;51.408;7.208;2022-07-23T06:14:23;24.70;50.50
4411;DHT22;2218;51.408;7.208;2022-07-23T06:16:54;24.70;50.50
4411;DHT22;2218;51.408;7.208;2022-07-23T06:19:22;24.70;50.50
4411;DHT22;2218;51.408;7.208;2022-07-23T06:21:49;24.70;50.50
4411;DHT22;2218;51.408;7.208;2022-07-23T06:24:16;24.70;50.50
4411;DHT22;2218;51.408;7.208;2022-07-23T06:26:45;24.70;50.50
4411;DHT22;2218;51.408;7.208;2022-07-23T06:29:13;24.70;50.50
4411;DHT22;2218;51.408;7.208;2022-07-23T06:31:41;24.70;50.50
4411;DHT22;2218;51.408;7.208;2022-07-23T06:34:08;24.70;50.50
4411;DHT22;2218;51.408;7.208;2022-07-23T06:36:35;24.70;50.50
4411;DHT22;2218;51.408;7.208;2022-07-23T06:39:02;24.70;50.50
4411;DHT22;2218;51.408;7.208;2022-07-23T06:41:30;24.70;50.50
4411;DHT22;2218;51.408;7.208;2022-07-23T06:43:58;24.70;50.50
4411;DHT22;2218;51.408;7.208;2022-07-23T06:46:28;24.70;50.50
4411;DHT22;2218;51.408;7.208;2022-07-23T06:48:55;24.70;50.50
4411;DHT22;2218;51.408;7.208;2022-07-23T06:51:22;24.70;50.50
4411;DHT22;2218;51.408;7.208;2022-07-23T06:53:49;24.70;50.60
4411;DHT22;2218;51.408;7.208;2022-07-23T06:56:16;24.70;50.60
4411;DHT22;2218;51.408;7.208;2022-07-23T06:58:43;24.70;50.60
4411;DHT22;2218;51.408;7.208;2022-07-23T07:01:11;24.70;50.60
4411;DHT22;2218;51.408;7.208;2022-07-23T07:03:40;24.70;50.60
4411;DHT22;2218;51.408;7.208;2022-07-23T07:06:08;24.70;50.60
4411;DHT22;2218;51.408;7.208;2022-07-23T07:08:35;24.70;50.60
4411;DHT22;2218;51.408;7.208;2022-07-23T07:11:02;24.70;50.60
4411;DHT22;2218;51.408;7.208;2022-07-23T07:13:29;24.70;50.60
4411;DHT22;2218;51.408;7.208;2022-07-23T07:15:57;24.70;50.60
4411;DHT22;2218;51.408;7.208;2022-07-23T07:18:26;24.70;50.60
4411;DHT22;2218;51.408;7.208;2022-07-23T07:20:53;24.70;50.60
4411;DHT22;2218;51.408;7.208;2022-07-23T07:23:20;24.70;50.60
4411;DHT22;2218;51.408;7.208;2022-07-23T07:25:47;24.70;50.60
4411;DHT22;2218;51.408;7.208;2022-07-23T07:28:14;24.70;50.60
4411;DHT22;2218;51.408;7.208;2022-07-23T07:30:41;24.70;50.60
4411;DHT22;2218;51.408;7.208;2022-07-23T07:33:09;24.70;50.60
4411;DHT22;2218;51.408;7.208;2022-07-23T07:35:37;24.70;50.60
4411;DHT22;2218;51.408;7.208;2022-07-23T07:38:04;24.70;50.60
4411;DHT22;2218;51.408;7.208;2022-07-23T07:40:31;24.70;50.60
4411;DHT22;2218;51.408;7.208;2022-07-23T07:42:58;24.70;50.60
4411;DHT22;2218;51.408;7.208;2022-07-23T07:45:25;24.70;50.60
4411;DHT22;2218;51.408;7.208;2022-07-23T07:47:52;24.70;50.60
4411;DHT22;2218;51.408;7.208;2022-07-23T07:50:20;24.70;50.60
4411;DHT22;2218;51.408;7.208;2022-07-23T07:52:48;24.80;50.70
4411;DHT22;2218;51.408;7.208;2022-07-23T07:55:15;24.70;50.60
4411;DHT22;2218;51.408;7.208;2022-07-23T07:57:42;24.70;50.60
4411;DHT22;2218;51.408;7.208;2022-07-23T08:00:10;24.70;50.60
4411;DHT22;2218;51.408;7.208;2022-07-23T08:02:42;24.70;50.70
4411;DHT22;2218;51.408;7.208;2022-07-23T08:05:10;24.80;50.70
4411;DHT22;2218;51.408;7.208;2022-07-23T08:07:38;24.70;50.60
4411;DHT22;2218;51.408;7.208;2022-07-23T08:10:08;24.80;50.70
4411;DHT22;2218;51.408;7.208;2022-07-23T08:12:44;24.80;50.70
4411;DHT22;2218;51.408;7.208;2022-07-23T08:15:12;24.80;50.70
4411;DHT22;2218;51.408;7.208;2022-07-23T08:17:40;24.80;50.70
4411;DHT22;2218;51.408;7.208;2022-07-23T08:20:09;24.70;50.60
4411;DHT22;2218;51.408;7.208;2022-07-23T08:22:45;24.80;50.70
4411;DHT22;2218;51.408;7.208;2022-07-23T08:25:15;24.80;50.70
4411;DHT22;2218;51.408;7.208;2022-07-23T08:27:46;24.80;50.70
4411;DHT22;2218;51.408;7.208;2022-07-23T08:30:13;24.80;50.70
4411;DHT22;2218;51.408;7.208;2022-07-23T08:32:50;24.80;50.70
4411;DHT22;2218;51.408;7.208;2022-07-23T08:35:23;24.80;50.70
4411;DHT22;2218;51.408;7.208;2022-07-23T08:37:51;24.80;50.70
4411;DHT22;2218;51.408;7.208;2022-07-23T08:40:20;24.80;50.70
4411;DHT22;2218;51.408;7.208;2022-07-23T08:42:49;24.80;50.70
4411;DHT22;2218;51.408;7.208;2022-07-23T08:45:19;24.80;50.70
4411;DHT22;2218;51.408;7.208;2022-07-23T08:47:51;24.80;50.70
4411;DHT22;2218;51.408;7.208;2022-07-23T08:50:20;24.80;50.70
4411;DHT22;2218;51.408;7.208;2022-07-23T08:52:49;24.80;50.70
4411;DHT22;2218;51.408;7.208;2022-07-23T08:55:18;24.80;50.70
4411;DHT22;2218;51.408;7.208;2022-07-23T08:57:50;24.80;50.70
4411;DHT22;2218;51.408;7.208;2022-07-23T09:00:20;24.80;50.70
4411;DHT22;2218;51.408;7.208;2022-07-23T09:02:49;24.90;50.80
4411;DHT22;2218;51.408;7.208;2022-07-23T09:05:16;24.90;50.80
4411;DHT22;2218;51.408;7.208;2022-07-23T09:08:06;24.80;50.60
4411;DHT22;2218;51.408;7.208;2022-07-23T09:10:54;24.90;50.80
4411;DHT22;2218;51.408;7.208;2022-07-23T09:13:36;24.90;50.70
4411;DHT22;2218;51.408;7.208;2022-07-23T09:16:07;24.90;50.70
4411;DHT22;2218;51.408;7.208;2022-07-23T09:18:41;24.90;51.20
4411;DHT22;2218;51.408;7.208;2022-07-23T09:21:13;24.90;50.70
4411;DHT22;2218;51.408;7.208;2022-07-23T09:23:43;24.90;50.80
4411;DHT22;2218;51.408;7.208;2022-07-23T09:26:25;24.90;50.70
4411;DHT22;2218;51.408;7.208;2022-07-23T09:29:00;24.90;50.70
4411;DHT22;2218;51.408;7.208;2022-07-23T09:31:45;24.90;50.70
4411;DHT22;2218;51.408;7.208;2022-07-23T09:34:16;24.90;50.70
4411;DHT22;2218;51.408;7.208;2022-07-23T09:36:46;24.90;50.70
4411;DHT22;2218;51.408;7.208;2022-07-23T09:39:15;24.90;50.70
4411;DHT22;2218;51.408;7.208;2022-07-23T09:41:49;24.90;50.70
4411;DHT22;2218;51.408;7.208;2022-07-23T09:44:18;24.90;50.70
4411;DHT22;2218;51.408;7.208;2022-07-23T09:46:48;24.90;50.70
4411;DHT22;2218;51.408;7.208;2022-07-23T09:49:19;24.90;50.70
4411;DHT22;2218;51.408;7.208;2022-07-23T09:51:52;24.90;50.70
4411;DHT22;2218;51.408;7.208;2022-07-23T09:54:26;24.90;50.70
4411;DHT22;2218;51.408;7.208;2022-07-23T09:56:59;24.90;50.60
4411;DHT22;2218;51.408;7.208;2022-07-23T09:59:29;24.90;50.60
4411;DHT22;2218;51.408;7.208;2022-07-23T10:01:58;24.90;50.70
4411;DHT22;2218;51.408;7.208;2022-07-23T10:04:27;24.90;50.70
4411;DHT22;2218;51.408;7.208;2022-07-23T10:07:08;24.90;50.70
4411;DHT22;2218;51.408;7.208;2022-07-23T10:09:54;24.90;50.60
4411;DHT22;2218;51.408;7.208;2022-07-23T10:12:44;24.90;50.60
4411;DHT22;2218;51.408;7.208;2022-07-23T10:15:22;24.90;50.60
4411;DHT22;2218;51.408;7.208;2022-07-23T10:17:50;24.90;50.60
4411;DHT22;2218;51.408;7.208;2022-07-23T10:20:17;24.90;50.60
4411;DHT22;2218;51.408;7.208;2022-07-23T10:22:49;24.90;50.60
4411;DHT22;2218;51.408;7.208;2022-07-23T10:25:32;24.90;50.60
4411;DHT22;2218;51.408;7.208;2022-07-23T10:28:50;24.90;50.60
4411;DHT22;2218;51.408;7.208;2022-07-23T10:31:45;24.90;50.60
4411;DHT22;2218;51.408;7.208;2022-07-23T10:34:23;24.90;50.60
4411;DHT22;2218;51.408;7.208;2022-07-23T10:37:01;24.90;50.60
4411;DHT22;2218;51.408;7.208;2022-07-23T10:39:38;24.90;50.60
4411;DHT22;2218;51.408;7.208;2022-07-23T10:42:09;24.90;50.60
4411;DHT22;2218;51.408;7.208;2022-07-23T10:44:40;24.90;50.60
4411;DHT22;2218;51.408;7.208;2022-07-23T10:47:10;24.90;50.60
4411;DHT22;2218;51.408;7.208;2022-07-23T10:49:49;24.90;50.60
4411;DHT22;2218;51.408;7.208;2022-07-23T10:52:22;25.00;50.70
4411;DHT22;2218;51.408;7.208;2022-07-23T10:54:52;24.90;50.60
4411;DHT22;2218;51.408;7.208;2022-07-23T10:57:22;25.00;50.60
4411;DHT22;2218;51.408;7.208;2022-07-23T11:02:58;25.00;50.60
4411;DHT22;2218;51.408;7.208;2022-07-23T11:05:40;24.90;50.60
4411;DHT22;2218;51.408;7.208;2022-07-23T11:08:17;25.00;50.60
4411;DHT22;2218;51.408;7.208;2022-07-23T11:10:49;25.00;50.60
4411;DHT22;2218;51.408;7.208;2022-07-23T11:13:32;25.00;50.60
4411;DHT22;2218;51.408;7.208;2022-07-23T11:16:07;25.00;50.60
4411;DHT22;2218;51.408;7.208;2022-07-23T11:19:06;25.00;50.60
4411;DHT22;2218;51.408;7.208;2022-07-23T11:21:45;25.00;50.70
4411;DHT22;2218;51.408;7.208;2022-07-23T11:24:18;25.00;50.60
4411;DHT22;2218;51.408;7.208;2022-07-23T11:27:10;25.00;50.60
4411;DHT22;2218;51.408;7.208;2022-07-23T11:29:49;25.00;50.60
4411;DHT22;2218;51.408;7.208;2022-07-23T11:32:31;25.00;50.50
4411;DHT22;2218;51.408;7.208;2022-07-23T11:35:01;25.00;50.50
4411;DHT22;2218;51.408;7.208;2022-07-23T11:37:35;25.00;50.50
4411;DHT22;2218;51.408;7.208;2022-07-23T11:40:07;25.00;50.60
4411;DHT22;2218;51.408;7.208;2022-07-23T11:42:39;25.00;50.50
4411;DHT22;2218;51.408;7.208;2022-07-23T11:45:17;25.00;50.50
4411;DHT22;2218;51.408;7.208;2022-07-23T11:47:45;25.00;50.50
4411;DHT22;2218;51.408;7.208;2022-07-23T11:50:12;25.00;50.50
4411;DHT22;2218;51.408;7.208;2022-07-23T11:52:39;25.00;50.50
4411;DHT22;2218;51.408;7.208;2022-07-23T11:55:08;25.00;50.50
4411;DHT22;2218;51.408;7.208;2022-07-23T11:57:38;25.00;50.50
4411;DHT22;2218;51.408;7.208;2022-07-23T12:00:08;25.00;50.50
4411;DHT22;2218;51.408;7.208;2022-07-23T12:02:41;25.00;51.00
4411;DHT22;2218;51.408;7.208;2022-07-23T12:05:13;25.00;50.40
4411;DHT22;2218;51.408;7.208;2022-07-23T12:07:43;25.00;50.40
4411;DHT22;2218;51.408;7.208;2022-07-23T12:10:13;25.00;50.40
4411;DHT22;2218;51.408;7.208;2022-07-23T12:12:44;25.00;50.40
4411;DHT22;2218;51.408;7.208;2022-07-23T12:15:14;25.00;50.40
4411;DHT22;2218;51.408;7.208;2022-07-23T12:17:45;25.00;50.40
4411;DHT22;2218;51.408;7.208;2022-07-23T12:20:16;25.00;50.40
4411;DHT22;2218;51.408;7.208;2022-07-23T12:22:46;25.00;50.40
4411;DHT22;2218;51.408;7.208;2022-07-23T12:25:16;25.00;50.40
4411;DHT22;2218;51.408;7.208;2022-07-23T12:27:44;25.00;50.30
4411;DHT22;2218;51.408;7.208;2022-07-23T12:30:20;25.00;50.30
4411;DHT22;2218;51.408;7.208;2022-07-23T12:32:51;25.00;50.30
4411;DHT22;2218;51.408;7.208;2022-07-23T12:35:23;25.00;50.30
4411;DHT22;2218;51.408;7.208;2022-07-23T12:38:01;25.00;50.30
4411;DHT22;2218;51.408;7.208;2022-07-23T12:40:30;25.00;50.30
4411;DHT22;2218;51.408;7.208;2022-07-23T12:43:00;25.00;50.30
4411;DHT22;2218;51.408;7.208;2022-07-23T12:45:43;25.00;50.30
4411;DHT22;2218;51.408;7.208;2022-07-23T12:48:17;25.00;50.30
4411;DHT22;2218;51.408;7.208;2022-07-23T12:50:52;25.00;50.30
4411;DHT22;2218;51.408;7.208;2022-07-23T12:53:23;25.10;50.30
4411;DHT22;2218;51.408;7.208;2022-07-23T12:55:58;25.10;50.30
4411;DHT22;2218;51.408;7.208;2022-07-23T12:58:26;25.00;50.30
4411;DHT22;2218;51.408;7.208;2022-07-23T13:01:05;25.00;50.30
4411;DHT22;2218;51.408;7.208;2022-07-23T13:03:38;25.10;50.20
4411;DHT22;2218;51.408;7.208;2022-07-23T13:06:09;25.00;50.20
4411;DHT22;2218;51.408;7.208;2022-07-23T13:08:39;25.10;50.20
4411;DHT22;2218;51.408;7.208;2022-07-23T13:11:06;25.10;50.20
4411;DHT22;2218;51.408;7.208;2022-07-23T13:13:35;25.10;50.20
4411;DHT22;2218;51.408;7.208;2022-07-23T13:16:02;25.10;50.20
4411;DHT22;2218;51.408;7.208;2022-07-23T13:18:30;25.10;50.20
4411;DHT22;2218;51.408;7.208;2022-07-23T13:20:58;25.10;50.10
4411;DHT22;2218;51.408;7.208;2022-07-23T13:23:27;25.10;50.20
4411;DHT22;2218;51.408;7.208;2022-07-23T13:25:54;25.10;50.20
4411;DHT22;2218;51.408;7.208;2022-07-23T13:28:22;25.00;50.30
4411;DHT22;2218;51.408;7.208;2022-07-23T13:30:50;25.10;50.20
4411;DHT22;2218;51.408;7.208;2022-07-23T13:33:19;25.10;50.10
4411;DHT22;2218;51.408;7.208;2022-07-23T13:35:49;25.10;50.10
4411;DHT22;2218;51.408;7.208;2022-07-23T13:38:18;25.10;50.10
4411;DHT22;2218;51.408;7.208;2022-07-23T13:40:48;25.10;50.10
4411;DHT22;2218;51.408;7.208;2022-07-23T13:43:18;25.10;50.10
4411;DHT22;2218;51.408;7.208;2022-07-23T13:45:48;25.10;50.10
4411;DHT22;2218;51.408;7.208;2022-07-23T13:48:17;25.10;50.10
4411;DHT22;2218;51.408;7.208;2022-07-23T13:50:45;25.10;50.10
4411;DHT22;2218;51.408;7.208;2022-07-23T13:53:15;25.10;50.00
4411;DHT22;2218;51.408;7.208;2022-07-23T13:55:44;25.10;50.00
4411;DHT22;2218;51.408;7.208;2022-07-23T13:58:13;25.10;50.00
4411;DHT22;2218;51.408;7.208;2022-07-23T14:00:43;25.10;50.00
4411;DHT22;2218;51.408;7.208;2022-07-23T14:03:11;25.10;49.90
4411;DHT22;2218;51.408;7.208;2022-07-23T14:05:38;25.10;50.40
4411;DHT22;2218;51.408;7.208;2022-07-23T14:08:06;25.10;49.90
4411;DHT22;2218;51.408;7.208;2022-07-23T14:10:34;25.10;49.90
4411;DHT22;2218;51.408;7.208;2022-07-23T14:13:01;25.10;49.90
4411;DHT22;2218;51.408;7.208;2022-07-23T14:15:31;25.10;49.70
4411;DHT22;2218;51.408;7.208;2022-07-23T14:17:59;25.10;49.80
4411;DHT22;2218;51.408;7.208;2022-07-23T14:20:26;25.10;49.80
4411;DHT22;2218;51.408;7.208;2022-07-23T14:22:53;25.10;49.80
4411;DHT22;2218;51.408;7.208;2022-07-23T14:25:21;25.10;49.80
4411;DHT22;2218;51.408;7.208;2022-07-23T14:27:48;25.10;49.80
4411;DHT22;2218;51.408;7.208;2022-07-23T14:30:15;25.10;49.80
4411;DHT22;2218;51.408;7.208;2022-07-23T14:32:43;25.10;49.80
4411;DHT22;2218;51.408;7.208;2022-07-23T14:35:10;25.10;49.70
4411;DHT22;2218;51.408;7.208;2022-07-23T14:37:39;25.10;49.70
4411;DHT22;2218;51.408;7.208;2022-07-23T14:40:07;25.10;49.60
4411;DHT22;2218;51.408;7.208;2022-07-23T14:42:34;25.10;49.60
4411;DHT22;2218;51.408;7.208;2022-07-23T14:45:01;25.10;49.60
4411;DHT22;2218;51.408;7.208;2022-07-23T14:47:29;25.10;49.50
4411;DHT22;2218;51.408;7.208;2022-07-23T14:49:58;25.10;49.50
4411;DHT22;2218;51.408;7.208;2022-07-23T14:52:25;25.10;49.50
4411;DHT22;2218;51.408;7.208;2022-07-23T14:54:52;25.20;49.50
4411;DHT22;2218;51.408;7.208;2022-07-23T14:57:19;25.10;49.50
4411;DHT22;2218;51.408;7.208;2022-07-23T14:59:46;25.20;49.50
4411;DHT22;2218;51.408;7.208;2022-07-23T15:02:13;25.20;49.50
4411;DHT22;2218;51.408;7.208;2022-07-23T15:04:40;25.20;49.50
4411;DHT22;2218;51.408;7.208;2022-07-23T15:07:08;25.20;49.60
4411;DHT22;2218;51.408;7.208;2022-07-23T15:09:35;25.20;49.50
4411;DHT22;2218;51.408;7.208;2022-07-23T15:12:02;25.20;49.50
4411;DHT22;2218;51.408;7.208;2022-07-23T15:14:30;25.20;49.60
4411;DHT22;2218;51.408;7.208;2022-07-23T15:16:57;25.20;49.60
4411;DHT22;2218;51.408;7.208;2022-07-23T15:19:24;25.10;49.40
4411;DHT22;2218;51.408;7.208;2022-07-23T15:21:51;25.20;49.40
4411;DHT22;2218;51.408;7.208;2022-07-23T15:24:20;25.20;49.40
4411;DHT22;2218;51.408;7.208;2022-07-23T15:26:47;25.20;49.40
4411;DHT22;2218;51.408;7.208;2022-07-23T15:29:14;25.20;49.40
4411;DHT22;2218;51.408;7.208;2022-07-23T15:31:41;25.20;49.30
4411;DHT22;2218;51.408;7.208;2022-07-23T15:34:08;25.20;49.40
4411;DHT22;2218;51.408;7.208;2022-07-23T15:36:35;25.20;49.40
4411;DHT22;2218;51.408;7.208;2022-07-23T15:39:02;25.20;49.30
4411;DHT22;2218;51.408;7.208;2022-07-23T15:41:31;25.20;49.30
4411;DHT22;2218;51.408;7.208;2022-07-23T15:43:58;25.20;49.20
4411;DHT22;2218;51.408;7.208;2022-07-23T15:46:26;25.20;49.30
4411;DHT22;2218;51.408;7.208;2022-07-23T15:48:54;25.20;49.30
4411;DHT22;2218;51.408;7.208;2022-07-23T15:51:21;25.20;49.30
4411;DHT22;2218;51.408;7.208;2022-07-23T15:53:48;25.20;49.30
4411;DHT22;2218;51.408;7.208;2022-07-23T15:56:15;25.20;49.30
4411;DHT22;2218;51.408;7.208;2022-07-23T15:58:43;25.20;49.30
4411;DHT22;2218;51.408;7.208;2022-07-23T16:01:11;25.20;49.20
4411;DHT22;2218;51.408;7.208;2022-07-23T16:03:38;25.20;49.20
4411;DHT22;2218;51.408;7.208;2022-07-23T16:06:06;25.20;49.20
4411;DHT22;2218;51.408;7.208;2022-07-23T16:08:34;25.20;49.10
4411;DHT22;2218;51.408;7.208;2022-07-23T16:11:01;25.20;49.10
4411;DHT22;2218;51.408;7.208;2022-07-23T16:13:28;25.20;49.10
4411;DHT22;2218;51.408;7.208;2022-07-23T16:15:57;25.20;49.10
4411;DHT22;2218;51.408;7.208;2022-07-23T16:18:24;25.20;49.10
4411;DHT22;2218;51.408;7.208;2022-07-23T16:20:53;25.20;49.00